createdAt,value
2019-04-01T00:01:22.849Z,24.18
2019-04-01T00:02:29.058Z,15.25
2019-04-01T00:03:35.690Z,13.08
2019-04-01T00:04:42.072Z,12.45
2019-04-01T00:05:48.576Z,10.35
2019-04-01T00:06:55.046Z,17.07
2019-04-01T00:08:01.437Z,17.42
2019-04-01T00:09:08.652Z,13.70
2019-04-01T00:10:15.244Z,8.90
2019-04-01T00:11:21.610Z,13.15
2019-04-01T00:12:27.770Z,12.03
2019-04-01T00:13:34.125Z,16.10
2019-04-01T00:14:40.366Z,16.15
2019-04-01T00:15:46.614Z,14.68
2019-04-01T00:16:53.203Z,14.20
2019-04-01T00:17:59.556Z,16.15
2019-04-01T00:19:05.894Z,18.02
2019-04-01T00:20:12.563Z,18.32
2019-04-01T00:21:18.934Z,15.03
2019-04-01T00:22:25.662Z,15.68
2019-04-01T00:23:32.036Z,13.85
2019-04-01T00:24:39.262Z,15.38
2019-04-01T00:25:45.394Z,13.65
2019-04-01T00:26:51.776Z,13.48
2019-04-01T00:27:58.383Z,13.25
2019-04-01T00:29:04.733Z,14.10
2019-04-01T00:30:11.233Z,12.50
2019-04-01T00:31:17.650Z,12.33
2019-04-01T00:32:24.240Z,18.40
2019-04-01T00:33:31.054Z,12.60
2019-04-01T00:34:37.464Z,15.32
2019-04-01T00:35:43.805Z,18.57
2019-04-01T00:36:50.044Z,15.03
2019-04-01T00:37:56.426Z,14.18
2019-04-01T00:39:05.580Z,15.05
2019-04-01T00:40:12.410Z,13.15
2019-04-01T00:41:18.764Z,13.65
2019-04-01T00:42:38.759Z,14.40
2019-04-01T00:43:53.552Z,13.00
2019-04-01T00:45:00.361Z,12.73
2019-04-01T00:46:06.790Z,15.65
2019-04-01T00:47:13.305Z,16.12
2019-04-01T00:48:19.623Z,16.32
2019-04-01T00:49:26.084Z,22.25
2019-04-01T00:50:32.484Z,17.45
2019-04-01T00:51:38.903Z,18.75
2019-04-01T00:52:45.145Z,13.53
2019-04-01T00:53:51.630Z,16.23
2019-04-01T00:54:58.046Z,13.65
2019-04-01T00:56:04.570Z,12.73
2019-04-01T00:57:10.921Z,11.90
2019-04-01T00:58:17.226Z,13.50
2019-04-01T00:59:23.137Z,13.25
2019-04-01T01:00:29.208Z,11.53
2019-04-01T01:01:35.644Z,13.58
2019-04-01T01:02:41.846Z,16.37
2019-04-01T01:03:48.094Z,11.20
2019-04-01T01:04:54.644Z,12.15
2019-04-01T01:06:01.021Z,11.88
2019-04-01T01:07:07.465Z,10.90
2019-04-01T01:08:13.817Z,11.38
2019-04-01T01:09:19.952Z,11.73
2019-04-01T01:10:26.231Z,12.80
2019-04-01T01:11:32.482Z,15.48
2019-04-01T01:12:38.772Z,11.22
2019-04-01T01:13:45.003Z,12.60
2019-04-01T01:14:51.369Z,13.98
2019-04-01T01:15:57.774Z,13.22
2019-04-01T01:17:04.143Z,11.83
2019-04-01T01:18:10.750Z,10.58
2019-04-01T01:19:17.003Z,8.78
2019-04-01T01:20:23.235Z,10.55
2019-04-01T01:21:29.800Z,12.18
2019-04-01T01:22:36.225Z,11.48
2019-04-01T01:23:42.593Z,11.40
2019-04-01T01:24:48.931Z,11.83
2019-04-01T01:25:55.290Z,13.43
2019-04-01T01:27:01.562Z,14.47
2019-04-01T01:28:08.011Z,10.78
2019-04-01T01:29:14.464Z,14.38
2019-04-01T01:30:21.033Z,9.75
2019-04-01T01:31:27.629Z,12.40
2019-04-01T01:32:33.956Z,13.38
2019-04-01T01:33:40.324Z,10.58
2019-04-01T01:34:46.819Z,12.47
2019-04-01T01:35:53.211Z,10.43
2019-04-01T01:36:59.573Z,12.50
2019-04-01T01:38:05.824Z,16.05
2019-04-01T01:39:12.162Z,14.70
2019-04-01T01:40:18.523Z,11.55
2019-04-01T01:41:24.901Z,10.13
2019-04-01T01:42:32.177Z,10.40
2019-04-01T01:43:38.452Z,12.30
2019-04-01T01:44:44.643Z,13.93
2019-04-01T01:45:50.934Z,13.38
2019-04-01T01:46:57.197Z,10.00
2019-04-01T01:48:03.574Z,13.10
2019-04-01T01:49:09.800Z,9.78
2019-04-01T01:50:16.160Z,10.18
2019-04-01T01:51:22.413Z,14.75
2019-04-01T01:52:28.840Z,10.55
2019-04-01T01:53:36.239Z,14.28
2019-04-01T01:54:42.634Z,13.78
2019-04-01T01:55:49.242Z,14.10
2019-04-01T01:56:55.624Z,10.08
2019-04-01T01:58:02.410Z,14.85
2019-04-01T01:59:08.713Z,12.03
2019-04-01T02:00:16.073Z,10.10
2019-04-01T02:01:22.545Z,13.75
2019-04-01T02:02:28.915Z,11.57
2019-04-01T02:03:35.250Z,10.30
2019-04-01T02:04:41.501Z,12.00
2019-04-01T02:05:47.821Z,9.98
2019-04-01T02:06:54.243Z,10.58
2019-04-01T02:08:00.543Z,13.32
2019-04-01T02:09:09.753Z,13.68
2019-04-01T02:10:16.213Z,10.90
2019-04-01T02:11:22.694Z,9.03
2019-04-01T02:12:29.087Z,15.68
2019-04-01T02:13:35.322Z,11.70
2019-04-01T02:14:41.419Z,13.93
2019-04-01T02:15:47.750Z,14.98
2019-04-01T02:16:54.186Z,13.38
2019-04-01T02:18:00.605Z,11.57
2019-04-01T02:19:07.012Z,13.53
2019-04-01T02:20:13.363Z,15.58
2019-04-01T02:21:19.732Z,8.55
2019-04-01T02:22:26.342Z,13.35
2019-04-01T02:23:32.764Z,13.83
2019-04-01T02:24:39.121Z,16.42
2019-04-01T02:25:46.421Z,15.30
2019-04-01T02:26:52.603Z,10.68
2019-04-01T02:27:59.062Z,11.83
2019-04-01T02:29:05.514Z,11.38
2019-04-01T02:30:12.049Z,16.07
2019-04-01T02:31:18.340Z,14.60
2019-04-01T02:32:24.725Z,13.75
2019-04-01T02:33:31.029Z,15.35
2019-04-01T02:34:37.456Z,13.95
2019-04-01T02:35:43.814Z,13.88
2019-04-01T02:36:50.234Z,14.35
2019-04-01T02:37:56.581Z,11.40
2019-04-01T02:39:03.792Z,12.35
2019-04-01T02:40:10.352Z,14.83
2019-04-01T02:41:16.795Z,11.73
2019-04-01T02:42:23.165Z,12.80
2019-04-01T02:43:29.404Z,14.05
2019-04-01T02:44:35.731Z,13.20
2019-04-01T02:45:42.159Z,11.95
2019-04-01T02:46:48.393Z,16.97
2019-04-01T02:47:54.813Z,14.03
2019-04-01T02:49:01.183Z,10.35
2019-04-01T02:50:07.695Z,14.78
2019-04-01T02:51:14.014Z,15.68
2019-04-01T02:52:20.386Z,14.58
2019-04-01T02:53:26.853Z,13.85
2019-04-01T02:54:33.280Z,13.70
2019-04-01T02:55:39.711Z,13.70
2019-04-01T02:56:46.220Z,12.70
2019-04-01T02:57:52.414Z,15.70
2019-04-01T02:58:58.699Z,14.28
2019-04-01T03:00:06.377Z,13.13
2019-04-01T03:01:12.678Z,10.55
2019-04-01T03:02:19.098Z,11.33
2019-04-01T03:03:25.558Z,10.72
2019-04-01T03:04:31.902Z,16.52
2019-04-01T03:05:38.167Z,15.43
2019-04-01T03:06:44.572Z,12.85
2019-04-01T03:07:50.942Z,9.25
2019-04-01T03:08:57.304Z,15.32
2019-04-01T03:10:03.682Z,14.07
2019-04-01T03:11:11.191Z,10.35
2019-04-01T03:12:17.629Z,13.72
2019-04-01T03:13:23.916Z,9.98
2019-04-01T03:14:30.222Z,11.88
2019-04-01T03:15:36.582Z,10.38
2019-04-01T03:16:42.825Z,14.53
2019-04-01T03:17:49.214Z,12.78
2019-04-01T03:18:55.525Z,12.68
2019-04-01T03:20:01.790Z,10.88
2019-04-01T03:21:08.181Z,15.18
2019-04-01T03:22:14.804Z,14.45
2019-04-01T03:23:21.257Z,11.55
2019-04-01T03:24:27.784Z,15.65
2019-04-01T03:25:33.985Z,15.70
2019-04-01T03:26:40.248Z,14.60
2019-04-01T03:27:46.486Z,10.23
2019-04-01T03:28:52.828Z,15.85
2019-04-01T03:29:59.220Z,13.95
2019-04-01T03:31:05.582Z,9.53
2019-04-01T03:32:12.095Z,11.45
2019-04-01T03:33:18.629Z,15.60
2019-04-01T03:34:24.972Z,12.90
2019-04-01T03:35:31.180Z,14.07
2019-04-01T03:36:37.580Z,15.05
2019-04-01T03:37:44.029Z,20.35
2019-04-01T03:38:50.456Z,17.20
2019-04-01T03:39:57.071Z,16.77
2019-04-01T03:41:03.376Z,14.23
2019-04-01T03:42:09.732Z,17.57
2019-04-01T03:43:16.086Z,12.37
2019-04-01T03:44:22.347Z,17.10
2019-04-01T03:45:29.800Z,12.63
2019-04-01T03:46:36.295Z,14.23
2019-04-01T03:47:42.683Z,17.37
2019-04-01T03:48:49.064Z,13.38
2019-04-01T03:49:55.432Z,10.63
2019-04-01T03:51:01.855Z,11.55
2019-04-01T03:52:10.316Z,13.22
2019-04-01T03:53:16.085Z,15.03
2019-04-01T03:54:22.600Z,13.43
2019-04-01T03:55:28.967Z,14.10
2019-04-01T03:56:35.566Z,17.32
2019-04-01T03:57:41.852Z,12.30
2019-04-01T03:58:48.242Z,13.15
2019-04-01T03:59:54.593Z,11.68
2019-04-01T04:01:01.276Z,11.35
2019-04-01T04:02:07.664Z,13.15
2019-04-01T04:03:14.102Z,15.40
2019-04-01T04:04:21.434Z,15.13
2019-04-01T04:05:27.814Z,11.75
2019-04-01T04:06:34.063Z,9.68
2019-04-01T04:07:40.434Z,13.40
2019-04-01T04:08:46.809Z,12.82
2019-04-01T04:09:53.320Z,12.43
2019-04-01T04:10:59.679Z,11.78
2019-04-01T04:12:05.948Z,11.93
2019-04-01T04:13:12.321Z,17.05
2019-04-01T04:14:18.645Z,13.85
2019-04-01T04:15:25.138Z,12.98
2019-04-01T04:16:31.600Z,16.25
2019-04-01T04:17:38.054Z,15.58
2019-04-01T04:18:44.287Z,12.18
2019-04-01T04:19:50.769Z,14.90
2019-04-01T04:20:57.082Z,10.70
2019-04-01T04:22:03.332Z,17.32
2019-04-01T04:23:11.687Z,13.90
2019-04-01T04:24:19.161Z,12.95
2019-04-01T04:25:25.580Z,12.07
2019-04-01T04:26:31.942Z,15.85
2019-04-01T04:27:39.487Z,10.00
2019-04-01T04:28:45.885Z,18.32
2019-04-01T04:29:52.179Z,11.00
2019-04-01T04:30:58.612Z,11.80
2019-04-01T04:32:05.175Z,13.70
2019-04-01T04:33:11.702Z,13.55
2019-04-01T04:34:18.093Z,13.45
2019-04-01T04:35:24.453Z,11.75
2019-04-01T04:36:30.907Z,11.57
2019-04-01T04:37:37.208Z,11.85
2019-04-01T04:38:43.482Z,13.68
2019-04-01T04:39:49.782Z,9.28
2019-04-01T04:40:56.215Z,11.20
2019-04-01T04:42:02.584Z,12.90
2019-04-01T04:43:09.237Z,10.58
2019-04-01T04:44:15.873Z,10.55
2019-04-01T04:45:22.279Z,13.80
2019-04-01T04:46:29.658Z,10.85
2019-04-01T04:47:36.080Z,9.38
2019-04-01T04:48:42.212Z,13.40
2019-04-01T04:49:48.665Z,13.08
2019-04-01T04:50:55.042Z,9.40
2019-04-01T04:52:04.484Z,13.75
2019-04-01T04:53:09.421Z,13.38
2019-04-01T04:54:15.773Z,14.63
2019-04-01T04:55:22.090Z,10.20
2019-04-01T04:56:29.362Z,10.53
2019-04-01T04:57:35.866Z,11.63
2019-04-01T04:58:42.802Z,13.78
2019-04-01T04:59:49.302Z,18.57
2019-04-01T05:00:55.963Z,12.80
2019-04-01T05:02:02.425Z,16.70
2019-04-01T05:03:09.022Z,12.00
2019-04-01T05:04:15.916Z,14.33
2019-04-01T05:05:22.303Z,11.73
2019-04-01T05:06:28.723Z,15.53
2019-04-01T05:07:35.093Z,10.80
2019-04-01T05:08:41.444Z,10.63
2019-04-01T05:09:47.892Z,15.53
2019-04-01T05:10:54.335Z,12.95
2019-04-01T05:12:00.701Z,13.45
2019-04-01T05:13:06.892Z,14.35
2019-04-01T05:14:13.253Z,13.72
2019-04-01T05:15:19.643Z,13.10
2019-04-01T05:16:26.028Z,15.08
2019-04-01T05:17:32.628Z,14.70
2019-04-01T05:18:39.049Z,9.05
2019-04-01T05:19:45.512Z,12.18
2019-04-01T05:20:52.692Z,14.78
2019-04-01T05:21:59.906Z,13.78
2019-04-01T05:23:06.570Z,15.35
2019-04-01T05:24:13.426Z,15.20
2019-04-01T05:25:19.974Z,15.43
2019-04-01T05:26:27.109Z,17.02
2019-04-01T05:27:35.727Z,15.60
2019-04-01T05:28:43.467Z,17.52
2019-04-01T05:29:52.062Z,14.03
2019-04-01T05:31:00.774Z,11.00
2019-04-01T05:32:08.711Z,11.12
2019-04-01T05:33:17.694Z,8.65
2019-04-01T05:34:25.503Z,15.65
2019-04-01T05:35:35.576Z,10.18
2019-04-01T05:36:42.143Z,8.18
2019-04-01T05:37:48.611Z,16.52
2019-04-01T05:38:55.480Z,9.70
2019-04-01T05:40:02.003Z,9.98
2019-04-01T05:41:08.586Z,10.58
2019-04-01T05:42:15.052Z,9.25
2019-04-01T05:43:23.838Z,8.18
2019-04-01T05:44:30.095Z,9.25
2019-04-01T05:45:36.583Z,10.32
2019-04-01T05:46:42.803Z,10.13
2019-04-01T05:47:51.591Z,7.53
2019-04-01T05:48:58.005Z,9.15
2019-04-01T05:50:04.645Z,10.28
2019-04-01T05:51:11.142Z,12.07
2019-04-01T05:52:17.471Z,9.13
2019-04-01T05:53:24.071Z,10.30
2019-04-01T05:54:30.494Z,11.60
2019-04-01T05:55:37.036Z,10.98
2019-04-01T05:56:43.454Z,11.38
2019-04-01T05:57:49.643Z,9.30
2019-04-01T05:58:56.032Z,11.63
2019-04-01T06:00:03.236Z,9.83
2019-04-01T06:01:14.208Z,10.72
2019-04-01T06:02:20.824Z,9.73
2019-04-01T06:03:27.677Z,9.50
2019-04-01T06:04:34.053Z,6.05
2019-04-01T06:05:40.385Z,7.53
2019-04-01T06:06:48.801Z,9.13
2019-04-01T06:07:56.227Z,5.83
2019-04-01T06:09:02.832Z,9.28
2019-04-01T06:10:09.406Z,8.95
2019-04-01T06:11:15.952Z,6.65
2019-04-01T06:12:24.278Z,10.35
2019-04-01T06:13:30.864Z,8.43
2019-04-01T06:14:37.135Z,6.45
2019-04-01T06:15:43.541Z,10.05
2019-04-01T06:16:49.893Z,7.22
2019-04-01T06:17:56.335Z,9.20
2019-04-01T06:19:05.953Z,7.30
2019-04-01T06:20:11.762Z,13.03
2019-04-01T06:21:18.354Z,7.72
2019-04-01T06:22:25.748Z,5.08
2019-04-01T06:23:32.144Z,7.67
2019-04-01T06:24:38.951Z,9.78
2019-04-01T06:25:45.331Z,6.55
2019-04-01T06:26:51.823Z,7.85
2019-04-01T06:27:58.896Z,4.65
2019-04-01T06:29:05.403Z,8.25
2019-04-01T06:30:12.836Z,11.20
2019-04-01T06:31:19.321Z,5.87
2019-04-01T06:32:25.679Z,5.80
2019-04-01T06:33:32.066Z,8.08
2019-04-01T06:34:52.307Z,4.85
2019-04-01T06:35:47.492Z,6.78
2019-04-01T06:36:53.921Z,10.35
2019-04-01T06:38:00.235Z,8.48
2019-04-01T06:39:07.654Z,7.33
2019-04-01T06:40:14.218Z,4.78
2019-04-01T06:41:20.722Z,6.40
2019-04-01T06:42:27.510Z,4.10
2019-04-01T06:43:33.987Z,6.55
2019-04-01T06:44:40.348Z,6.12
2019-04-01T06:45:46.819Z,7.17
2019-04-01T06:46:53.444Z,5.30
2019-04-01T06:48:00.814Z,8.18
2019-04-01T06:49:07.438Z,5.30
2019-04-01T06:50:15.035Z,6.92
2019-04-01T06:51:21.407Z,7.28
2019-04-01T06:52:27.872Z,5.53
2019-04-01T06:53:34.259Z,6.95
2019-04-01T06:54:40.633Z,5.25
2019-04-01T06:55:47.320Z,5.87
2019-04-01T06:56:53.705Z,6.40
2019-04-01T06:58:00.269Z,8.35
2019-04-01T06:59:06.583Z,6.85
2019-04-01T07:00:13.280Z,8.65
2019-04-01T07:01:19.664Z,7.35
2019-04-01T07:02:26.165Z,6.67
2019-04-01T07:03:32.593Z,9.05
2019-04-01T07:04:40.062Z,4.05
2019-04-01T07:05:46.437Z,6.30
2019-04-01T07:06:54.178Z,7.80
2019-04-01T07:08:00.868Z,5.47
2019-04-01T07:09:08.080Z,6.67
2019-04-01T07:10:14.493Z,4.80
2019-04-01T07:11:21.145Z,8.03
2019-04-01T07:12:27.515Z,4.58
2019-04-01T07:13:33.913Z,8.03
2019-04-01T07:14:40.413Z,4.97
2019-04-01T07:15:46.868Z,6.12
2019-04-01T07:16:53.345Z,11.70
2019-04-01T07:17:59.702Z,6.50
2019-04-01T07:19:07.434Z,4.12
2019-04-01T07:20:14.163Z,6.90
2019-04-01T07:21:20.561Z,5.95
2019-04-01T07:22:27.519Z,7.50
2019-04-01T07:23:33.856Z,6.95
2019-04-01T07:24:41.220Z,7.83
2019-04-01T07:25:47.413Z,7.10
2019-04-01T07:26:53.839Z,5.35
2019-04-01T07:28:00.320Z,7.85
2019-04-01T07:29:06.685Z,11.88
2019-04-01T07:30:13.240Z,8.93
2019-04-01T07:31:20.011Z,4.37
2019-04-01T07:32:26.423Z,7.22
2019-04-01T07:33:32.892Z,6.22
2019-04-01T07:34:39.471Z,6.55
2019-04-01T07:35:46.840Z,5.42
2019-04-01T07:36:53.377Z,10.78
2019-04-01T07:37:59.854Z,5.37
2019-04-01T07:39:07.391Z,6.45
2019-04-01T07:40:14.210Z,7.65
2019-04-01T07:41:20.852Z,4.70
2019-04-01T07:42:27.210Z,5.03
2019-04-01T07:43:33.610Z,4.37
2019-04-01T07:44:40.029Z,4.80
2019-04-01T07:45:46.520Z,4.33
2019-04-01T07:46:52.990Z,5.08
2019-04-01T07:47:59.617Z,4.30
2019-04-01T07:49:06.127Z,2.90
2019-04-01T07:50:12.858Z,8.03
2019-04-01T07:51:19.292Z,8.50
2019-04-01T07:52:26.115Z,4.62
2019-04-01T07:53:32.742Z,6.97
2019-04-01T07:54:38.984Z,8.30
2019-04-01T07:55:45.983Z,4.62
2019-04-01T07:56:52.332Z,5.75
2019-04-01T07:57:59.848Z,8.05
2019-04-01T07:59:07.569Z,4.25
2019-04-01T08:00:14.044Z,5.60
2019-04-01T08:01:20.294Z,5.00
2019-04-01T08:02:26.724Z,3.22
2019-04-01T08:03:33.634Z,2.05
2019-04-01T08:04:40.105Z,5.60
2019-04-01T08:05:47.596Z,2.35
2019-04-01T08:06:54.107Z,5.15
2019-04-01T08:08:00.465Z,2.08
2019-04-01T08:09:08.197Z,2.20
2019-04-01T08:10:14.801Z,6.58
2019-04-01T08:11:21.148Z,5.37
2019-04-01T08:12:27.959Z,4.17
2019-04-01T08:13:34.965Z,2.50
2019-04-01T08:14:41.460Z,2.92
2019-04-01T08:15:47.963Z,5.03
2019-04-01T08:16:54.366Z,3.60
2019-04-01T08:18:00.911Z,2.75
2019-04-01T08:19:07.552Z,4.95
2019-04-01T08:20:14.237Z,2.35
2019-04-01T08:21:21.220Z,2.20
2019-04-01T08:22:27.601Z,4.45
2019-04-01T08:23:33.983Z,6.30
2019-04-01T08:24:40.233Z,4.33
2019-04-01T08:25:48.097Z,1.65
2019-04-01T08:26:54.722Z,2.58
2019-04-01T08:28:01.114Z,2.80
2019-04-01T08:29:07.690Z,3.55
2019-04-01T08:30:14.671Z,3.15
2019-04-01T08:31:21.693Z,5.35
2019-04-01T08:32:27.991Z,3.25
2019-04-01T08:33:34.543Z,1.95
2019-04-01T08:34:40.867Z,2.37
2019-04-01T08:35:47.447Z,4.15
2019-04-01T08:36:54.091Z,3.12
2019-04-01T08:38:00.554Z,2.10
2019-04-01T08:39:13.185Z,3.45
2019-04-01T08:40:20.907Z,4.62
2019-04-01T08:41:27.484Z,1.70
2019-04-01T08:42:34.129Z,2.65
2019-04-01T08:43:40.704Z,2.22
2019-04-01T08:44:47.232Z,2.20
2019-04-01T08:45:53.642Z,2.83
2019-04-01T08:47:00.021Z,1.57
2019-04-01T08:48:06.664Z,3.30
2019-04-01T08:49:13.039Z,5.10
2019-04-01T08:50:20.199Z,3.02
2019-04-01T08:51:26.539Z,2.15
2019-04-01T08:52:33.022Z,3.60
2019-04-01T08:53:39.698Z,2.55
2019-04-01T08:54:46.134Z,1.72
2019-04-01T08:56:00.316Z,2.25
2019-04-01T08:57:01.114Z,1.80
2019-04-01T08:58:07.562Z,1.20
2019-04-01T08:59:14.469Z,3.27
2019-04-01T09:00:21.126Z,1.65
2019-04-01T09:01:34.968Z,2.87
2019-04-01T09:02:35.565Z,2.62
2019-04-01T09:03:42.136Z,3.83
2019-04-01T09:04:48.731Z,1.90
2019-04-01T09:05:56.443Z,1.30
2019-04-01T09:07:03.050Z,1.55
2019-04-01T09:08:09.576Z,0.90
2019-04-01T09:09:16.262Z,1.25
2019-04-01T09:10:22.842Z,2.37
2019-04-01T09:11:30.621Z,2.08
2019-04-01T09:12:37.462Z,1.57
2019-04-01T09:13:44.081Z,2.02
2019-04-01T09:14:52.902Z,2.25
2019-04-01T09:16:00.143Z,1.37
2019-04-01T09:17:06.660Z,1.55
2019-04-01T09:18:13.028Z,2.40
2019-04-01T09:19:19.505Z,3.22
2019-04-01T09:20:25.960Z,1.95
2019-04-01T09:21:32.452Z,1.75
2019-04-01T09:22:38.825Z,3.77
2019-04-01T09:23:45.323Z,3.58
2019-04-01T09:24:51.570Z,3.40
2019-04-01T09:25:58.020Z,1.42
2019-04-01T09:27:04.565Z,2.35
2019-04-01T09:28:10.932Z,2.25
2019-04-01T09:29:17.534Z,2.58
2019-04-01T09:30:23.906Z,1.30
2019-04-01T09:31:30.654Z,1.47
2019-04-01T09:32:37.105Z,1.82
2019-04-01T09:33:43.544Z,4.12
2019-04-01T09:34:49.924Z,3.52
2019-04-01T09:35:56.135Z,1.85
2019-04-01T09:37:02.510Z,2.45
2019-04-01T09:38:08.895Z,2.12
2019-04-01T09:39:15.297Z,3.65
2019-04-01T09:40:21.795Z,3.47
2019-04-01T09:41:28.241Z,1.75
2019-04-01T09:42:34.749Z,3.70
2019-04-01T09:43:41.136Z,3.25
2019-04-01T09:44:47.495Z,3.33
2019-04-01T09:45:54.084Z,2.98
2019-04-01T09:47:00.375Z,4.47
2019-04-01T09:48:06.733Z,5.90
2019-04-01T09:49:13.099Z,2.37
2019-04-01T09:50:19.599Z,1.90
2019-04-01T09:51:26.141Z,2.25
2019-04-01T09:52:32.505Z,4.50
2019-04-01T09:53:38.951Z,5.45
2019-04-01T09:54:45.337Z,2.08
2019-04-01T09:55:51.685Z,3.45
2019-04-01T09:56:58.162Z,1.50
2019-04-01T09:58:04.615Z,2.30
2019-04-01T09:59:11.209Z,5.42
2019-04-01T10:00:18.987Z,3.70
2019-04-01T10:01:25.260Z,4.20
2019-04-01T10:02:32.458Z,3.92
2019-04-01T10:03:38.957Z,3.35
2019-04-01T10:04:45.548Z,4.97
2019-04-01T10:05:51.819Z,2.72
2019-04-01T10:06:59.351Z,2.70
2019-04-01T10:08:05.887Z,2.58
2019-04-01T10:09:12.445Z,2.45
2019-04-01T10:10:18.966Z,2.65
2019-04-01T10:11:25.465Z,3.83
2019-04-01T10:12:31.645Z,2.83
2019-04-01T10:13:38.077Z,3.55
2019-04-01T10:14:44.421Z,2.22
2019-04-01T10:15:51.058Z,3.33
2019-04-01T10:16:57.584Z,2.22
2019-04-01T10:18:04.104Z,1.70
2019-04-01T10:19:10.478Z,4.37
2019-04-01T10:20:17.149Z,4.17
2019-04-01T10:21:23.671Z,1.82
2019-04-01T10:22:30.037Z,1.90
2019-04-01T10:23:36.349Z,1.95
2019-04-01T10:24:42.851Z,3.98
2019-04-01T10:25:51.337Z,1.62
2019-04-01T10:26:57.354Z,5.20
2019-04-01T10:28:03.870Z,2.98
2019-04-01T10:29:10.245Z,4.62
2019-04-01T10:30:17.169Z,1.80
2019-04-01T10:31:23.782Z,2.72
2019-04-01T10:32:30.321Z,2.60
2019-04-01T10:33:36.750Z,2.30
2019-04-01T10:34:43.224Z,7.17
2019-04-01T10:35:49.480Z,3.65
2019-04-01T10:36:56.062Z,4.92
2019-04-01T10:38:02.510Z,3.40
2019-04-01T10:39:11.690Z,3.00
2019-04-01T10:40:18.494Z,3.08
2019-04-01T10:41:24.955Z,8.60
2019-04-01T10:42:31.406Z,2.30
2019-04-01T10:43:38.027Z,1.95
2019-04-01T10:44:44.535Z,1.87
2019-04-01T10:45:51.423Z,2.42
2019-04-01T10:46:58.025Z,2.22
2019-04-01T10:48:04.518Z,1.50
2019-04-01T10:49:11.093Z,2.62
2019-04-01T10:50:18.061Z,1.47
2019-04-01T10:51:24.745Z,2.67
2019-04-01T10:52:32.527Z,2.12
2019-04-01T10:53:38.886Z,2.50
2019-04-01T10:54:45.382Z,1.57
2019-04-01T10:55:51.779Z,2.05
2019-04-01T10:56:58.707Z,1.27
2019-04-01T10:58:06.244Z,2.47
2019-04-01T10:59:12.952Z,1.90
2019-04-01T11:00:20.105Z,3.92
2019-04-01T11:01:26.824Z,3.17
2019-04-01T11:02:33.554Z,4.75
2019-04-01T11:03:40.601Z,1.35
2019-04-01T11:04:48.115Z,4.78
2019-04-01T11:05:55.120Z,4.22
2019-04-01T11:07:01.679Z,2.80
2019-04-01T11:08:08.446Z,4.20
2019-04-01T11:09:14.929Z,4.80
2019-04-01T11:10:21.453Z,4.33
2019-04-01T11:11:28.024Z,2.50
2019-04-01T11:12:34.513Z,2.67
2019-04-01T11:13:43.806Z,1.50
2019-04-01T11:14:50.238Z,5.17
2019-04-01T11:15:56.779Z,2.37
2019-04-01T11:17:04.513Z,1.75
2019-04-01T11:18:12.092Z,4.05
2019-04-01T11:19:18.648Z,5.35
2019-04-01T11:20:25.026Z,2.45
2019-04-01T11:21:31.481Z,49.08
2019-04-01T11:22:37.961Z,22.87
2019-04-01T11:23:44.362Z,4.67
2019-04-01T11:24:51.059Z,4.33
2019-04-01T11:25:58.127Z,3.42
2019-04-01T11:27:04.693Z,4.97
2019-04-01T11:28:11.248Z,31.87
2019-04-01T11:29:17.728Z,5.80
2019-04-01T11:30:24.231Z,17.13
2019-04-01T11:31:30.585Z,9.67
2019-04-01T11:32:37.155Z,2.33
2019-04-01T11:33:44.891Z,1.77
2019-04-01T11:34:51.270Z,1.97
2019-04-01T11:35:57.953Z,2.20
2019-04-01T11:37:04.361Z,6.23
2019-04-01T11:38:10.935Z,7.17
2019-04-01T11:39:17.332Z,5.73
2019-04-01T11:40:23.785Z,8.70
2019-04-01T11:41:30.193Z,5.47
2019-04-01T11:42:40.251Z,3.33
2019-04-01T11:43:44.729Z,1.87
2019-04-01T11:44:52.548Z,3.50
2019-04-01T11:45:59.354Z,7.73
2019-04-01T11:47:05.835Z,4.70
2019-04-01T11:48:12.277Z,1.80
2019-04-01T11:49:18.815Z,1.70
2019-04-01T11:50:25.563Z,3.53
2019-04-01T11:51:34.579Z,1.50
2019-04-01T11:52:40.210Z,3.17
2019-04-01T11:53:46.810Z,6.33
2019-04-01T11:54:53.228Z,4.60
2019-04-01T11:56:00.077Z,3.93
2019-04-01T11:57:06.425Z,5.83
2019-04-01T11:58:12.783Z,2.30
2019-04-01T11:59:20.247Z,3.30
2019-04-01T12:00:26.749Z,1.40
2019-04-01T12:01:36.591Z,2.83
2019-04-01T12:02:41.363Z,2.17
2019-04-01T12:03:47.688Z,3.13
2019-04-01T12:04:54.195Z,2.43
2019-04-01T12:06:00.562Z,4.10
2019-04-01T12:07:07.020Z,1.90
2019-04-01T12:08:13.329Z,4.80
2019-04-01T12:09:19.612Z,3.40
2019-04-01T12:10:26.187Z,2.00
2019-04-01T12:11:32.507Z,2.57
2019-04-01T12:12:39.025Z,1.50
2019-04-01T12:13:46.416Z,3.40
2019-04-01T12:14:52.958Z,4.60
2019-04-01T12:15:59.346Z,3.10
2019-04-01T12:17:05.826Z,2.53
2019-04-01T12:18:12.202Z,3.63
2019-04-01T12:19:18.630Z,2.60
2019-04-01T12:20:25.184Z,3.20
2019-04-01T12:21:31.501Z,4.03
2019-04-01T12:22:37.902Z,1.50
2019-04-01T12:23:44.193Z,2.63
2019-04-01T12:24:50.713Z,1.63
2019-04-01T12:25:57.068Z,1.40
2019-04-01T12:27:03.568Z,1.30
2019-04-01T12:28:10.109Z,1.10
2019-04-01T12:29:16.563Z,2.83
2019-04-01T12:30:23.032Z,2.77
2019-04-01T12:31:29.706Z,2.87
2019-04-01T12:32:36.059Z,4.53
2019-04-01T12:33:42.586Z,3.33
2019-04-01T12:34:50.004Z,3.23
2019-04-01T12:35:56.330Z,2.83
2019-04-01T12:37:02.821Z,3.47
2019-04-01T12:38:09.273Z,2.97
2019-04-01T12:39:15.793Z,1.73
2019-04-01T12:40:22.366Z,1.77
2019-04-01T12:41:28.856Z,3.47
2019-04-01T12:42:35.435Z,1.27
2019-04-01T12:43:41.772Z,4.13
2019-04-01T12:44:48.189Z,1.83
2019-04-01T12:45:54.773Z,1.30
2019-04-01T12:47:01.345Z,1.40
2019-04-01T12:48:08.092Z,2.53
2019-04-01T12:49:14.570Z,2.57
2019-04-01T12:50:22.351Z,2.10
2019-04-01T12:51:28.915Z,3.70
2019-04-01T12:52:35.385Z,4.20
2019-04-01T12:53:41.950Z,1.33
2019-04-01T12:54:48.298Z,1.80
2019-04-01T12:55:54.646Z,2.30
2019-04-01T12:57:01.203Z,2.07
2019-04-01T12:58:07.749Z,3.03
2019-04-01T12:59:14.224Z,2.23
2019-04-01T13:00:22.159Z,4.97
2019-04-01T13:01:28.787Z,3.13
2019-04-01T13:02:35.123Z,3.23
2019-04-01T13:03:41.595Z,3.47
2019-04-01T13:04:51.267Z,1.77
2019-04-01T13:05:56.075Z,2.37
2019-04-01T13:07:05.058Z,2.20
2019-04-01T13:08:10.701Z,7.63
2019-04-01T13:09:17.324Z,3.30
2019-04-01T13:10:23.892Z,1.80
2019-04-01T13:11:31.330Z,6.90
2019-04-01T13:12:37.912Z,1.67
2019-04-01T13:13:44.796Z,1.67
2019-04-01T13:14:55.168Z,6.10
2019-04-01T13:15:59.551Z,7.87
2019-04-01T13:17:06.031Z,8.70
2019-04-01T13:18:12.493Z,6.73
2019-04-01T13:19:19.065Z,5.77
2019-04-01T13:20:36.976Z,10.77
2019-04-01T13:21:34.680Z,5.67
2019-04-01T13:22:41.112Z,3.17
2019-04-01T13:23:47.351Z,3.80
2019-04-01T13:24:53.691Z,7.77
2019-04-01T13:26:00.262Z,2.80
2019-04-01T13:27:09.222Z,2.30
2019-04-01T13:28:14.724Z,3.97
2019-04-01T13:29:21.138Z,6.23
2019-04-01T13:30:27.413Z,11.13
2019-04-01T13:31:33.820Z,10.20
2019-04-01T13:32:40.342Z,10.53
2019-04-01T13:33:46.892Z,2.83
2019-04-01T13:34:53.509Z,2.53
2019-04-01T13:35:59.992Z,3.77
2019-04-01T13:37:06.604Z,1.77
2019-04-01T13:38:13.180Z,5.30
2019-04-01T13:39:20.763Z,2.23
2019-04-01T13:40:27.184Z,1.90
2019-04-01T13:41:42.373Z,4.33
2019-04-01T13:42:43.281Z,4.23
2019-04-01T13:43:50.206Z,2.75
2019-04-01T13:44:56.717Z,2.90
2019-04-01T13:46:03.362Z,1.95
2019-04-01T13:47:09.696Z,2.47
2019-04-01T13:48:19.445Z,2.12
2019-04-01T13:49:26.160Z,6.95
2019-04-01T13:50:32.699Z,5.28
2019-04-01T13:51:42.944Z,5.10
2019-04-01T13:52:47.638Z,5.42
2019-04-01T13:54:07.680Z,7.05
2019-04-01T13:55:02.092Z,5.12
2019-04-01T13:56:10.388Z,5.83
2019-04-01T13:57:16.432Z,2.65
2019-04-01T13:58:22.805Z,1.87
2019-04-01T13:59:30.236Z,3.65
2019-04-01T14:00:36.749Z,3.58
2019-04-01T14:01:43.196Z,1.67
2019-04-01T14:02:50.372Z,1.40
2019-04-01T14:03:57.609Z,3.15
2019-04-01T14:05:06.309Z,1.75
2019-04-01T14:06:12.886Z,5.35
2019-04-01T14:07:19.666Z,4.17
2019-04-01T14:08:27.135Z,2.95
2019-04-01T14:09:33.714Z,3.05
2019-04-01T14:10:43.297Z,3.52
2019-04-01T14:11:50.817Z,4.22
2019-04-01T14:12:57.217Z,2.92
2019-04-01T14:14:03.806Z,3.40
2019-04-01T14:15:10.764Z,4.47
2019-04-01T14:16:17.414Z,4.20
2019-04-01T14:17:23.972Z,2.50
2019-04-01T14:18:30.765Z,0.98
2019-04-01T14:19:37.273Z,4.62
2019-04-01T14:20:44.373Z,2.50
2019-04-01T14:21:52.407Z,1.30
2019-04-01T14:22:59.115Z,5.15
2019-04-01T14:24:05.705Z,6.90
2019-04-01T14:25:13.995Z,2.17
2019-04-01T14:26:20.530Z,1.37
2019-04-01T14:27:27.616Z,1.85
2019-04-01T14:28:34.083Z,2.80
2019-04-01T14:29:40.647Z,1.60
2019-04-01T14:30:47.176Z,1.55
2019-04-01T14:31:53.983Z,2.52
2019-04-01T14:33:00.574Z,1.45
2019-04-01T14:34:13.137Z,3.08
2019-04-01T14:35:15.540Z,1.67
2019-04-01T14:36:22.269Z,2.05
2019-04-01T14:37:30.098Z,6.95